sensor_id;sensor_type;location;lat;lon;timestamp;P1;durP1;ratioP1;P2;durP2;ratioP2
29824;SDS011;16713;52.916;12.834;2024-01-30T00:00:43;10.82;;;5.90;;
29824;SDS011;16713;52.916;12.834;2024-01-30T00:03:10;12.82;;;5.90;;
29824;SDS011;16713;52.916;12.834;2024-01-30T00:05:37;9.23;;;5.85;;
29824;SDS011;16713;52.916;12.834;2024-01-30T00:08:03;16.52;;;7.10;;
29824;SDS011;16713;52.916;12.834;2024-01-30T00:10:30;12.70;;;6.47;;
29824;SDS011;16713;52.916;12.834;2024-01-30T00:12:57;16.73;;;8.27;;
29824;SDS011;16713;52.916;12.834;2024-01-30T00:15:23;18.48;;;9.35;;
29824;SDS011;16713;52.916;12.834;2024-01-30T00:17:50;13.60;;;8.63;;
29824;SDS011;16713;52.916;12.834;2024-01-30T00:20:19;14.40;;;7.47;;
29824;SDS011;16713;52.916;12.834;2024-01-30T00:22:46;18.92;;;8.13;;
29824;SDS011;16713;52.916;12.834;2024-01-30T00:25:13;20.60;;;9.38;;
29824;SDS011;16713;52.916;12.834;2024-01-30T00:27:40;17.15;;;7.78;;
29824;SDS011;16713;52.916;12.834;2024-01-30T00:30:06;17.88;;;8.68;;
29824;SDS011;16713;52.916;12.834;2024-01-30T00:32:33;18.63;;;8.93;;
29824;SDS011;16713;52.916;12.834;2024-01-30T00:35:00;16.23;;;9.30;;
29824;SDS011;16713;52.916;12.834;2024-01-30T00:37:26;16.35;;;9.40;;
29824;SDS011;16713;52.916;12.834;2024-01-30T00:39:53;17.23;;;8.80;;
29824;SDS011;16713;52.916;12.834;2024-01-30T00:42:20;16.58;;;8.10;;
29824;SDS011;16713;52.916;12.834;2024-01-30T00:44:47;15.18;;;7.95;;
29824;SDS011;16713;52.916;12.834;2024-01-30T00:47:13;16.23;;;7.80;;
29824;SDS011;16713;52.916;12.834;2024-01-30T00:49:40;14.25;;;7.75;;
29824;SDS011;16713;52.916;12.834;2024-01-30T00:52:06;15.13;;;7.25;;
29824;SDS011;16713;52.916;12.834;2024-01-30T00:54:33;14.18;;;7.72;;
29824;SDS011;16713;52.916;12.834;2024-01-30T00:56:59;13.48;;;7.40;;
29824;SDS011;16713;52.916;12.834;2024-01-30T00:59:26;13.32;;;7.20;;
29824;SDS011;16713;52.916;12.834;2024-01-30T01:01:52;16.95;;;8.07;;
29824;SDS011;16713;52.916;12.834;2024-01-30T01:04:19;13.55;;;6.38;;
29824;SDS011;16713;52.916;12.834;2024-01-30T01:06:47;14.52;;;7.88;;
29824;SDS011;16713;52.916;12.834;2024-01-30T01:09:14;10.65;;;7.13;;
29824;SDS011;16713;52.916;12.834;2024-01-30T01:11:40;13.75;;;7.43;;
29824;SDS011;16713;52.916;12.834;2024-01-30T01:14:07;13.63;;;7.72;;
29824;SDS011;16713;52.916;12.834;2024-01-30T01:16:33;12.15;;;7.60;;
29824;SDS011;16713;52.916;12.834;2024-01-30T01:19:00;15.30;;;7.20;;
29824;SDS011;16713;52.916;12.834;2024-01-30T01:21:27;18.27;;;9.40;;
29824;SDS011;16713;52.916;12.834;2024-01-30T01:23:53;11.52;;;6.90;;
29824;SDS011;16713;52.916;12.834;2024-01-30T01:26:20;14.50;;;7.35;;
29824;SDS011;16713;52.916;12.834;2024-01-30T01:28:47;11.73;;;6.72;;
29824;SDS011;16713;52.916;12.834;2024-01-30T01:31:14;11.43;;;6.45;;
29824;SDS011;16713;52.916;12.834;2024-01-30T01:33:41;12.52;;;7.07;;
29824;SDS011;16713;52.916;12.834;2024-01-30T01:36:07;12.23;;;6.15;;
29824;SDS011;16713;52.916;12.834;2024-01-30T01:38:34;10.38;;;6.63;;
29824;SDS011;16713;52.916;12.834;2024-01-30T01:41:00;18.33;;;7.03;;
29824;SDS011;16713;52.916;12.834;2024-01-30T01:43:27;16.10;;;6.82;;
29824;SDS011;16713;52.916;12.834;2024-01-30T01:45:53;13.30;;;7.10;;
29824;SDS011;16713;52.916;12.834;2024-01-30T01:48:20;10.07;;;6.93;;
29824;SDS011;16713;52.916;12.834;2024-01-30T01:50:46;10.90;;;6.82;;
29824;SDS011;16713;52.916;12.834;2024-01-30T01:53:13;10.32;;;6.78;;
29824;SDS011;16713;52.916;12.834;2024-01-30T01:55:41;12.60;;;6.97;;
29824;SDS011;16713;52.916;12.834;2024-01-30T01:58:08;13.57;;;7.07;;
29824;SDS011;16713;52.916;12.834;2024-01-30T02:00:36;14.63;;;6.78;;
29824;SDS011;16713;52.916;12.834;2024-01-30T02:03:06;13.55;;;7.47;;
29824;SDS011;16713;52.916;12.834;2024-01-30T02:05:33;12.55;;;7.10;;
29824;SDS011;16713;52.916;12.834;2024-01-30T02:08:00;13.07;;;8.02;;
29824;SDS011;16713;52.916;12.834;2024-01-30T02:10:27;11.48;;;7.35;;
29824;SDS011;16713;52.916;12.834;2024-01-30T02:12:54;13.95;;;7.47;;
29824;SDS011;16713;52.916;12.834;2024-01-30T02:15:20;10.82;;;6.50;;
29824;SDS011;16713;52.916;12.834;2024-01-30T02:17:47;12.80;;;7.85;;
29824;SDS011;16713;52.916;12.834;2024-01-30T02:20:14;14.68;;;7.78;;
29824;SDS011;16713;52.916;12.834;2024-01-30T02:22:40;13.40;;;7.15;;
29824;SDS011;16713;52.916;12.834;2024-01-30T02:25:08;15.32;;;7.38;;
29824;SDS011;16713;52.916;12.834;2024-01-30T02:27:35;10.27;;;6.53;;
29824;SDS011;16713;52.916;12.834;2024-01-30T02:30:02;15.73;;;6.72;;
29824;SDS011;16713;52.916;12.834;2024-01-30T02:32:28;14.15;;;6.72;;
29824;SDS011;16713;52.916;12.834;2024-01-30T02:34:55;11.15;;;6.20;;
29824;SDS011;16713;52.916;12.834;2024-01-30T02:37:21;8.73;;;6.13;;
29824;SDS011;16713;52.916;12.834;2024-01-30T02:39:48;15.05;;;7.47;;
29824;SDS011;16713;52.916;12.834;2024-01-30T02:42:15;12.27;;;7.35;;
29824;SDS011;16713;52.916;12.834;2024-01-30T02:44:41;9.68;;;6.55;;
29824;SDS011;16713;52.916;12.834;2024-01-30T02:47:07;12.45;;;6.88;;
29824;SDS011;16713;52.916;12.834;2024-01-30T02:49:34;10.25;;;6.30;;
29824;SDS011;16713;52.916;12.834;2024-01-30T02:52:00;12.32;;;6.97;;
29824;SDS011;16713;52.916;12.834;2024-01-30T02:54:27;12.38;;;7.25;;
29824;SDS011;16713;52.916;12.834;2024-01-30T02:56:53;10.25;;;6.10;;
29824;SDS011;16713;52.916;12.834;2024-01-30T02:59:20;13.73;;;6.50;;
29824;SDS011;16713;52.916;12.834;2024-01-30T03:01:46;11.02;;;5.72;;
29824;SDS011;16713;52.916;12.834;2024-01-30T03:04:14;10.27;;;6.90;;
29824;SDS011;16713;52.916;12.834;2024-01-30T03:06:44;17.77;;;6.82;;
29824;SDS011;16713;52.916;12.834;2024-01-30T03:09:13;11.80;;;6.57;;
29824;SDS011;16713;52.916;12.834;2024-01-30T03:11:39;10.60;;;7.28;;
29824;SDS011;16713;52.916;12.834;2024-01-30T03:14:06;10.77;;;6.15;;
29824;SDS011;16713;52.916;12.834;2024-01-30T03:16:34;10.02;;;7.15;;
29824;SDS011;16713;52.916;12.834;2024-01-30T03:19:00;15.75;;;6.78;;
29824;SDS011;16713;52.916;12.834;2024-01-30T03:21:28;11.13;;;6.40;;
29824;SDS011;16713;52.916;12.834;2024-01-30T03:23:54;12.95;;;7.07;;
29824;SDS011;16713;52.916;12.834;2024-01-30T03:26:21;13.52;;;6.80;;
29824;SDS011;16713;52.916;12.834;2024-01-30T03:28:47;11.65;;;6.32;;
29824;SDS011;16713;52.916;12.834;2024-01-30T03:31:14;11.45;;;6.88;;
29824;SDS011;16713;52.916;12.834;2024-01-30T03:33:42;9.40;;;6.47;;
29824;SDS011;16713;52.916;12.834;2024-01-30T03:36:08;13.82;;;6.65;;
29824;SDS011;16713;52.916;12.834;2024-01-30T03:38:35;10.20;;;6.43;;
29824;SDS011;16713;52.916;12.834;2024-01-30T03:41:02;14.18;;;7.70;;
29824;SDS011;16713;52.916;12.834;2024-01-30T03:43:29;11.32;;;6.63;;
29824;SDS011;16713;52.916;12.834;2024-01-30T03:45:55;11.35;;;7.30;;
29824;SDS011;16713;52.916;12.834;2024-01-30T03:48:22;11.73;;;6.65;;
29824;SDS011;16713;52.916;12.834;2024-01-30T03:50:48;10.73;;;6.82;;
29824;SDS011;16713;52.916;12.834;2024-01-30T03:53:15;12.23;;;6.47;;
29824;SDS011;16713;52.916;12.834;2024-01-30T03:55:41;11.32;;;6.72;;
29824;SDS011;16713;52.916;12.834;2024-01-30T03:58:08;13.82;;;7.50;;
29824;SDS011;16713;52.916;12.834;2024-01-30T04:00:34;13.95;;;7.50;;
29824;SDS011;16713;52.916;12.834;2024-01-30T04:03:01;12.95;;;7.20;;
29824;SDS011;16713;52.916;12.834;2024-01-30T04:05:28;14.05;;;7.55;;
29824;SDS011;16713;52.916;12.834;2024-01-30T04:07:55;11.70;;;6.85;;
29824;SDS011;16713;52.916;12.834;2024-01-30T04:10:21;11.75;;;7.18;;
29824;SDS011;16713;52.916;12.834;2024-01-30T04:12:48;12.55;;;7.82;;
29824;SDS011;16713;52.916;12.834;2024-01-30T04:15:14;14.02;;;7.45;;
29824;SDS011;16713;52.916;12.834;2024-01-30T04:17:41;12.02;;;6.55;;
29824;SDS011;16713;52.916;12.834;2024-01-30T04:20:08;16.23;;;6.65;;
29824;SDS011;16713;52.916;12.834;2024-01-30T04:22:38;13.50;;;6.93;;
29824;SDS011;16713;52.916;12.834;2024-01-30T04:25:04;12.80;;;7.18;;
29824;SDS011;16713;52.916;12.834;2024-01-30T04:27:31;10.93;;;6.22;;
29824;SDS011;16713;52.916;12.834;2024-01-30T04:29:58;12.80;;;7.38;;
29824;SDS011;16713;52.916;12.834;2024-01-30T04:32:24;10.77;;;6.50;;
29824;SDS011;16713;52.916;12.834;2024-01-30T04:34:51;16.98;;;8.50;;
29824;SDS011;16713;52.916;12.834;2024-01-30T04:37:17;12.15;;;7.20;;
29824;SDS011;16713;52.916;12.834;2024-01-30T04:39:44;13.13;;;6.70;;
29824;SDS011;16713;52.916;12.834;2024-01-30T04:42:11;11.98;;;7.13;;
29824;SDS011;16713;52.916;12.834;2024-01-30T04:44:37;16.67;;;8.32;;
29824;SDS011;16713;52.916;12.834;2024-01-30T04:47:04;12.57;;;6.97;;
29824;SDS011;16713;52.916;12.834;2024-01-30T04:49:32;12.50;;;7.72;;
29824;SDS011;16713;52.916;12.834;2024-01-30T04:51:58;14.18;;;7.13;;
29824;SDS011;16713;52.916;12.834;2024-01-30T04:54:25;12.35;;;7.90;;
29824;SDS011;16713;52.916;12.834;2024-01-30T04:56:52;12.15;;;7.22;;
29824;SDS011;16713;52.916;12.834;2024-01-30T04:59:18;15.18;;;7.50;;
29824;SDS011;16713;52.916;12.834;2024-01-30T05:01:45;13.15;;;7.93;;
29824;SDS011;16713;52.916;12.834;2024-01-30T05:04:11;10.68;;;6.25;;
29824;SDS011;16713;52.916;12.834;2024-01-30T05:06:42;15.93;;;7.15;;
29824;SDS011;16713;52.916;12.834;2024-01-30T05:09:09;16.42;;;7.80;;
29824;SDS011;16713;52.916;12.834;2024-01-30T05:11:39;12.27;;;8.00;;
29824;SDS011;16713;52.916;12.834;2024-01-30T05:14:06;12.48;;;8.25;;
29824;SDS011;16713;52.916;12.834;2024-01-30T05:16:33;12.10;;;7.78;;
29824;SDS011;16713;52.916;12.834;2024-01-30T05:19:00;15.30;;;7.63;;
29824;SDS011;16713;52.916;12.834;2024-01-30T05:21:28;12.98;;;7.40;;
29824;SDS011;16713;52.916;12.834;2024-01-30T05:23:55;16.25;;;7.75;;
29824;SDS011;16713;52.916;12.834;2024-01-30T05:26:21;12.82;;;7.90;;
29824;SDS011;16713;52.916;12.834;2024-01-30T05:28:49;12.02;;;7.47;;
29824;SDS011;16713;52.916;12.834;2024-01-30T05:31:15;17.08;;;8.80;;
29824;SDS011;16713;52.916;12.834;2024-01-30T05:33:42;10.10;;;7.25;;
29824;SDS011;16713;52.916;12.834;2024-01-30T05:36:11;14.23;;;7.88;;
29824;SDS011;16713;52.916;12.834;2024-01-30T05:38:39;14.85;;;6.97;;
29824;SDS011;16713;52.916;12.834;2024-01-30T05:41:05;12.45;;;6.95;;
29824;SDS011;16713;52.916;12.834;2024-01-30T05:43:32;15.50;;;7.80;;
29824;SDS011;16713;52.916;12.834;2024-01-30T05:45:58;15.73;;;8.82;;
29824;SDS011;16713;52.916;12.834;2024-01-30T05:48:25;15.68;;;8.10;;
29824;SDS011;16713;52.916;12.834;2024-01-30T05:50:51;14.73;;;8.05;;
29824;SDS011;16713;52.916;12.834;2024-01-30T05:53:18;13.98;;;8.18;;
29824;SDS011;16713;52.916;12.834;2024-01-30T05:55:45;13.40;;;7.75;;
29824;SDS011;16713;52.916;12.834;2024-01-30T05:58:11;17.70;;;8.23;;
29824;SDS011;16713;52.916;12.834;2024-01-30T06:00:38;11.20;;;7.13;;
29824;SDS011;16713;52.916;12.834;2024-01-30T06:03:04;14.48;;;8.82;;
29824;SDS011;16713;52.916;12.834;2024-01-30T06:05:31;17.48;;;9.25;;
29824;SDS011;16713;52.916;12.834;2024-01-30T06:07:57;13.45;;;8.07;;
29824;SDS011;16713;52.916;12.834;2024-01-30T06:10:24;17.65;;;8.65;;
29824;SDS011;16713;52.916;12.834;2024-01-30T06:12:50;11.35;;;7.22;;
29824;SDS011;16713;52.916;12.834;2024-01-30T06:15:17;16.77;;;7.85;;
29824;SDS011;16713;52.916;12.834;2024-01-30T06:17:43;14.18;;;7.47;;
29824;SDS011;16713;52.916;12.834;2024-01-30T06:20:10;14.35;;;7.82;;
29824;SDS011;16713;52.916;12.834;2024-01-30T06:22:36;16.48;;;7.70;;
29824;SDS011;16713;52.916;12.834;2024-01-30T06:25:03;16.10;;;8.38;;
29824;SDS011;16713;52.916;12.834;2024-01-30T06:27:30;11.65;;;7.05;;
29824;SDS011;16713;52.916;12.834;2024-01-30T06:29:56;16.75;;;7.53;;
29824;SDS011;16713;52.916;12.834;2024-01-30T06:32:23;14.93;;;7.68;;
29824;SDS011;16713;52.916;12.834;2024-01-30T06:34:49;15.63;;;7.57;;
29824;SDS011;16713;52.916;12.834;2024-01-30T06:37:16;12.30;;;8.00;;
29824;SDS011;16713;52.916;12.834;2024-01-30T06:39:42;15.27;;;7.95;;
29824;SDS011;16713;52.916;12.834;2024-01-30T06:42:08;12.25;;;7.35;;
29824;SDS011;16713;52.916;12.834;2024-01-30T06:44:35;10.18;;;7.30;;
29824;SDS011;16713;52.916;12.834;2024-01-30T06:47:02;13.48;;;7.57;;
29824;SDS011;16713;52.916;12.834;2024-01-30T06:49:28;13.80;;;7.32;;
29824;SDS011;16713;52.916;12.834;2024-01-30T06:51:55;20.60;;;9.13;;
29824;SDS011;16713;52.916;12.834;2024-01-30T06:54:22;11.10;;;7.32;;
29824;SDS011;16713;52.916;12.834;2024-01-30T06:56:48;12.82;;;8.63;;
29824;SDS011;16713;52.916;12.834;2024-01-30T06:59:15;17.58;;;9.32;;
29824;SDS011;16713;52.916;12.834;2024-01-30T07:01:41;13.02;;;7.10;;
29824;SDS011;16713;52.916;12.834;2024-01-30T07:04:08;15.20;;;7.60;;
29824;SDS011;16713;52.916;12.834;2024-01-30T07:06:34;13.55;;;7.82;;
29824;SDS011;16713;52.916;12.834;2024-01-30T07:09:01;14.18;;;7.60;;
29824;SDS011;16713;52.916;12.834;2024-01-30T07:11:27;18.30;;;8.50;;
29824;SDS011;16713;52.916;12.834;2024-01-30T07:13:55;13.73;;;7.93;;
29824;SDS011;16713;52.916;12.834;2024-01-30T07:16:21;13.13;;;7.90;;
29824;SDS011;16713;52.916;12.834;2024-01-30T07:18:49;16.80;;;7.82;;
29824;SDS011;16713;52.916;12.834;2024-01-30T07:21:16;17.10;;;8.00;;
29824;SDS011;16713;52.916;12.834;2024-01-30T07:23:42;12.80;;;7.63;;
29824;SDS011;16713;52.916;12.834;2024-01-30T07:26:09;15.52;;;8.20;;
29824;SDS011;16713;52.916;12.834;2024-01-30T07:28:35;15.27;;;7.82;;
29824;SDS011;16713;52.916;12.834;2024-01-30T07:31:02;13.98;;;8.15;;
29824;SDS011;16713;52.916;12.834;2024-01-30T07:33:29;19.25;;;8.43;;
29824;SDS011;16713;52.916;12.834;2024-01-30T07:35:56;16.45;;;7.75;;
29824;SDS011;16713;52.916;12.834;2024-01-30T07:38:24;14.13;;;7.72;;
29824;SDS011;16713;52.916;12.834;2024-01-30T07:40:50;13.98;;;7.05;;
29824;SDS011;16713;52.916;12.834;2024-01-30T07:43:17;15.60;;;7.57;;
29824;SDS011;16713;52.916;12.834;2024-01-30T07:45:43;11.73;;;8.02;;
29824;SDS011;16713;52.916;12.834;2024-01-30T07:48:10;14.65;;;8.63;;
29824;SDS011;16713;52.916;12.834;2024-01-30T07:50:36;14.77;;;7.53;;
29824;SDS011;16713;52.916;12.834;2024-01-30T07:53:03;19.33;;;7.70;;
29824;SDS011;16713;52.916;12.834;2024-01-30T07:55:29;12.93;;;8.52;;
29824;SDS011;16713;52.916;12.834;2024-01-30T07:57:58;13.57;;;7.25;;
29824;SDS011;16713;52.916;12.834;2024-01-30T08:00:25;13.05;;;7.43;;
29824;SDS011;16713;52.916;12.834;2024-01-30T08:02:52;16.40;;;8.73;;
29824;SDS011;16713;52.916;12.834;2024-01-30T08:05:20;12.77;;;7.95;;
29824;SDS011;16713;52.916;12.834;2024-01-30T08:07:51;15.63;;;7.97;;
29824;SDS011;16713;52.916;12.834;2024-01-30T08:10:18;13.45;;;8.40;;
29824;SDS011;16713;52.916;12.834;2024-01-30T08:12:45;15.00;;;8.02;;
29824;SDS011;16713;52.916;12.834;2024-01-30T08:15:11;15.35;;;8.43;;
29824;SDS011;16713;52.916;12.834;2024-01-30T08:17:41;17.45;;;9.27;;
29824;SDS011;16713;52.916;12.834;2024-01-30T08:20:07;13.55;;;8.20;;
29824;SDS011;16713;52.916;12.834;2024-01-30T08:22:40;15.13;;;8.63;;
29824;SDS011;16713;52.916;12.834;2024-01-30T08:25:07;12.00;;;7.57;;
29824;SDS011;16713;52.916;12.834;2024-01-30T08:27:34;16.92;;;8.75;;
29824;SDS011;16713;52.916;12.834;2024-01-30T08:30:02;18.15;;;8.90;;
29824;SDS011;16713;52.916;12.834;2024-01-30T08:32:29;14.48;;;8.50;;
29824;SDS011;16713;52.916;12.834;2024-01-30T08:34:56;13.45;;;8.25;;
29824;SDS011;16713;52.916;12.834;2024-01-30T08:37:22;18.35;;;8.75;;
29824;SDS011;16713;52.916;12.834;2024-01-30T08:39:49;13.57;;;7.88;;
29824;SDS011;16713;52.916;12.834;2024-01-30T08:42:15;15.48;;;8.88;;
29824;SDS011;16713;52.916;12.834;2024-01-30T08:44:44;24.05;;;13.63;;
29824;SDS011;16713;52.916;12.834;2024-01-30T08:47:11;14.05;;;8.57;;
29824;SDS011;16713;52.916;12.834;2024-01-30T08:49:37;20.33;;;8.27;;
29824;SDS011;16713;52.916;12.834;2024-01-30T08:52:04;16.08;;;9.02;;
29824;SDS011;16713;52.916;12.834;2024-01-30T08:54:30;14.23;;;9.02;;
29824;SDS011;16713;52.916;12.834;2024-01-30T08:57:00;14.02;;;8.65;;
29824;SDS011;16713;52.916;12.834;2024-01-30T08:59:27;17.35;;;9.50;;
29824;SDS011;16713;52.916;12.834;2024-01-30T09:01:53;15.95;;;9.00;;
29824;SDS011;16713;52.916;12.834;2024-01-30T09:04:36;13.57;;;8.80;;
29824;SDS011;16713;52.916;12.834;2024-01-30T09:07:03;16.88;;;8.52;;
29824;SDS011;16713;52.916;12.834;2024-01-30T09:09:32;16.30;;;9.85;;
29824;SDS011;16713;52.916;12.834;2024-01-30T09:11:58;15.77;;;8.90;;
29824;SDS011;16713;52.916;12.834;2024-01-30T09:14:30;18.10;;;10.02;;
29824;SDS011;16713;52.916;12.834;2024-01-30T09:16:57;18.15;;;9.27;;
29824;SDS011;16713;52.916;12.834;2024-01-30T09:19:23;13.73;;;8.98;;
29824;SDS011;16713;52.916;12.834;2024-01-30T09:21:50;15.65;;;9.73;;
29824;SDS011;16713;52.916;12.834;2024-01-30T09:24:16;14.35;;;8.88;;
29824;SDS011;16713;52.916;12.834;2024-01-30T09:26:43;17.15;;;9.63;;
29824;SDS011;16713;52.916;12.834;2024-01-30T09:29:09;16.65;;;9.40;;
29824;SDS011;16713;52.916;12.834;2024-01-30T09:31:36;13.98;;;8.82;;
29824;SDS011;16713;52.916;12.834;2024-01-30T09:34:02;17.08;;;9.45;;
29824;SDS011;16713;52.916;12.834;2024-01-30T09:36:29;14.85;;;8.52;;
29824;SDS011;16713;52.916;12.834;2024-01-30T09:38:55;14.88;;;8.85;;
29824;SDS011;16713;52.916;12.834;2024-01-30T09:41:23;15.45;;;9.10;;
29824;SDS011;16713;52.916;12.834;2024-01-30T09:43:50;16.92;;;10.30;;
29824;SDS011;16713;52.916;12.834;2024-01-30T09:46:17;17.77;;;10.05;;
29824;SDS011;16713;52.916;12.834;2024-01-30T09:48:47;16.45;;;9.18;;
29824;SDS011;16713;52.916;12.834;2024-01-30T09:51:16;11.60;;;8.40;;
29824;SDS011;16713;52.916;12.834;2024-01-30T09:53:43;22.50;;;8.95;;
29824;SDS011;16713;52.916;12.834;2024-01-30T09:56:12;17.38;;;9.07;;
29824;SDS011;16713;52.916;12.834;2024-01-30T09:58:39;11.73;;;8.20;;
29824;SDS011;16713;52.916;12.834;2024-01-30T10:01:06;18.85;;;9.38;;
29824;SDS011;16713;52.916;12.834;2024-01-30T10:03:33;15.13;;;9.93;;
29824;SDS011;16713;52.916;12.834;2024-01-30T10:06:00;13.93;;;9.05;;
29824;SDS011;16713;52.916;12.834;2024-01-30T10:08:27;13.43;;;8.48;;
29824;SDS011;16713;52.916;12.834;2024-01-30T10:10:55;15.75;;;8.68;;
29824;SDS011;16713;52.916;12.834;2024-01-30T10:13:22;14.50;;;8.23;;
29824;SDS011;16713;52.916;12.834;2024-01-30T10:15:49;17.30;;;8.73;;
29824;SDS011;16713;52.916;12.834;2024-01-30T10:18:16;14.60;;;8.80;;
29824;SDS011;16713;52.916;12.834;2024-01-30T10:20:43;14.88;;;8.75;;
29824;SDS011;16713;52.916;12.834;2024-01-30T10:23:09;15.82;;;9.20;;
29824;SDS011;16713;52.916;12.834;2024-01-30T10:25:36;14.45;;;8.57;;
29824;SDS011;16713;52.916;12.834;2024-01-30T10:28:04;15.63;;;9.15;;
29824;SDS011;16713;52.916;12.834;2024-01-30T10:30:31;18.92;;;9.50;;
29824;SDS011;16713;52.916;12.834;2024-01-30T10:32:58;18.30;;;9.30;;
29824;SDS011;16713;52.916;12.834;2024-01-30T10:35:24;14.07;;;9.50;;
29824;SDS011;16713;52.916;12.834;2024-01-30T10:37:51;19.52;;;9.70;;
29824;SDS011;16713;52.916;12.834;2024-01-30T10:40:18;19.15;;;8.95;;
29824;SDS011;16713;52.916;12.834;2024-01-30T10:42:48;13.52;;;9.82;;
29824;SDS011;16713;52.916;12.834;2024-01-30T10:45:19;16.10;;;9.93;;
29824;SDS011;16713;52.916;12.834;2024-01-30T10:47:51;14.65;;;8.90;;
29824;SDS011;16713;52.916;12.834;2024-01-30T10:50:19;16.13;;;9.55;;
29824;SDS011;16713;52.916;12.834;2024-01-30T10:52:47;16.00;;;9.95;;
29824;SDS011;16713;52.916;12.834;2024-01-30T10:55:13;16.77;;;8.68;;
29824;SDS011;16713;52.916;12.834;2024-01-30T10:57:42;15.73;;;8.70;;
29824;SDS011;16713;52.916;12.834;2024-01-30T11:00:09;13.80;;;8.90;;
29824;SDS011;16713;52.916;12.834;2024-01-30T11:02:38;16.92;;;9.68;;
29824;SDS011;16713;52.916;12.834;2024-01-30T11:05:06;16.55;;;8.52;;
29824;SDS011;16713;52.916;12.834;2024-01-30T11:07:34;16.02;;;8.52;;
29824;SDS011;16713;52.916;12.834;2024-01-30T11:10:02;16.70;;;9.02;;
29824;SDS011;16713;52.916;12.834;2024-01-30T11:12:31;12.52;;;8.98;;
29824;SDS011;16713;52.916;12.834;2024-01-30T11:15:05;12.18;;;8.38;;
29824;SDS011;16713;52.916;12.834;2024-01-30T11:20:10;14.77;;;8.65;;
29824;SDS011;16713;52.916;12.834;2024-01-30T11:22:38;15.13;;;8.55;;
29824;SDS011;16713;52.916;12.834;2024-01-30T11:25:10;15.70;;;8.50;;
29824;SDS011;16713;52.916;12.834;2024-01-30T11:27:37;13.30;;;8.38;;
29824;SDS011;16713;52.916;12.834;2024-01-30T11:30:04;14.40;;;8.73;;
29824;SDS011;16713;52.916;12.834;2024-01-30T11:32:31;14.43;;;8.05;;
29824;SDS011;16713;52.916;12.834;2024-01-30T11:34:58;15.90;;;8.25;;
29824;SDS011;16713;52.916;12.834;2024-01-30T11:37:25;15.88;;;9.07;;
29824;SDS011;16713;52.916;12.834;2024-01-30T11:39:53;20.42;;;9.85;;
29824;SDS011;16713;52.916;12.834;2024-01-30T11:42:21;17.10;;;9.57;;
29824;SDS011;16713;52.916;12.834;2024-01-30T11:44:51;12.63;;;7.65;;
29824;SDS011;16713;52.916;12.834;2024-01-30T11:47:17;15.23;;;8.32;;
29824;SDS011;16713;52.916;12.834;2024-01-30T11:49:44;13.98;;;8.13;;
29824;SDS011;16713;52.916;12.834;2024-01-30T11:52:11;13.10;;;9.00;;
29824;SDS011;16713;52.916;12.834;2024-01-30T11:54:39;15.98;;;9.38;;
29824;SDS011;16713;52.916;12.834;2024-01-30T11:57:06;13.93;;;7.82;;
29824;SDS011;16713;52.916;12.834;2024-01-30T11:59:32;16.48;;;8.70;;
29824;SDS011;16713;52.916;12.834;2024-01-30T12:01:59;12.68;;;7.93;;
29824;SDS011;16713;52.916;12.834;2024-01-30T12:04:28;14.60;;;8.30;;
29824;SDS011;16713;52.916;12.834;2024-01-30T12:06:55;12.00;;;7.85;;
29824;SDS011;16713;52.916;12.834;2024-01-30T12:09:22;11.73;;;7.90;;
29824;SDS011;16713;52.916;12.834;2024-01-30T12:11:49;17.73;;;9.23;;
29824;SDS011;16713;52.916;12.834;2024-01-30T12:14:18;15.50;;;8.85;;
29824;SDS011;16713;52.916;12.834;2024-01-30T12:16:49;16.23;;;8.77;;
29824;SDS011;16713;52.916;12.834;2024-01-30T12:19:26;13.65;;;7.85;;
29824;SDS011;16713;52.916;12.834;2024-01-30T12:21:56;14.27;;;8.52;;
29824;SDS011;16713;52.916;12.834;2024-01-30T12:24:25;12.10;;;8.30;;
29824;SDS011;16713;52.916;12.834;2024-01-30T12:26:56;15.65;;;8.98;;
29824;SDS011;16713;52.916;12.834;2024-01-30T12:29:24;12.27;;;8.10;;
29824;SDS011;16713;52.916;12.834;2024-01-30T12:31:53;13.20;;;7.78;;
29824;SDS011;16713;52.916;12.834;2024-01-30T12:34:21;12.93;;;8.20;;
29824;SDS011;16713;52.916;12.834;2024-01-30T12:36:48;12.18;;;6.95;;
29824;SDS011;16713;52.916;12.834;2024-01-30T12:39:17;13.23;;;8.30;;
29824;SDS011;16713;52.916;12.834;2024-01-30T12:41:44;11.52;;;8.05;;
29824;SDS011;16713;52.916;12.834;2024-01-30T12:44:11;14.18;;;7.63;;
29824;SDS011;16713;52.916;12.834;2024-01-30T12:46:40;11.77;;;7.45;;
29824;SDS011;16713;52.916;12.834;2024-01-30T12:49:06;16.33;;;7.43;;
29824;SDS011;16713;52.916;12.834;2024-01-30T12:51:34;12.10;;;7.65;;
29824;SDS011;16713;52.916;12.834;2024-01-30T12:54:04;14.50;;;8.02;;
29824;SDS011;16713;52.916;12.834;2024-01-30T12:56:31;15.65;;;9.48;;
29824;SDS011;16713;52.916;12.834;2024-01-30T12:58:58;15.88;;;8.07;;
29824;SDS011;16713;52.916;12.834;2024-01-30T13:01:25;14.43;;;8.10;;
29824;SDS011;16713;52.916;12.834;2024-01-30T13:03:52;13.50;;;8.43;;
29824;SDS011;16713;52.916;12.834;2024-01-30T13:06:18;13.65;;;8.80;;
29824;SDS011;16713;52.916;12.834;2024-01-30T13:08:46;15.93;;;8.05;;
29824;SDS011;16713;52.916;12.834;2024-01-30T13:11:12;11.85;;;7.90;;
29824;SDS011;16713;52.916;12.834;2024-01-30T13:13:46;11.05;;;7.72;;
29824;SDS011;16713;52.916;12.834;2024-01-30T13:16:13;12.95;;;7.60;;
29824;SDS011;16713;52.916;12.834;2024-01-30T13:18:40;10.35;;;6.95;;
29824;SDS011;16713;52.916;12.834;2024-01-30T13:21:07;13.25;;;7.90;;
29824;SDS011;16713;52.916;12.834;2024-01-30T13:23:34;14.18;;;6.85;;
29824;SDS011;16713;52.916;12.834;2024-01-30T13:26:01;17.17;;;7.78;;
29824;SDS011;16713;52.916;12.834;2024-01-30T13:28:27;10.40;;;6.95;;
29824;SDS011;16713;52.916;12.834;2024-01-30T13:30:54;11.15;;;7.20;;
29824;SDS011;16713;52.916;12.834;2024-01-30T13:33:20;11.02;;;6.78;;
29824;SDS011;16713;52.916;12.834;2024-01-30T13:35:47;16.27;;;7.45;;
29824;SDS011;16713;52.916;12.834;2024-01-30T13:38:13;11.05;;;7.80;;
29824;SDS011;16713;52.916;12.834;2024-01-30T13:40:41;13.57;;;8.20;;
29824;SDS011;16713;52.916;12.834;2024-01-30T13:43:08;13.07;;;7.07;;
29824;SDS011;16713;52.916;12.834;2024-01-30T13:45:34;13.30;;;7.00;;
29824;SDS011;16713;52.916;12.834;2024-01-30T13:48:01;12.80;;;7.50;;
29824;SDS011;16713;52.916;12.834;2024-01-30T13:50:29;16.33;;;8.13;;
29824;SDS011;16713;52.916;12.834;2024-01-30T13:52:56;16.52;;;9.23;;
29824;SDS011;16713;52.916;12.834;2024-01-30T13:55:23;14.93;;;8.98;;
29824;SDS011;16713;52.916;12.834;2024-01-30T13:57:50;13.18;;;8.07;;
29824;SDS011;16713;52.916;12.834;2024-01-30T14:00:17;17.20;;;8.02;;
29824;SDS011;16713;52.916;12.834;2024-01-30T14:02:44;10.90;;;8.15;;
29824;SDS011;16713;52.916;12.834;2024-01-30T14:05:11;12.25;;;6.75;;
29824;SDS011;16713;52.916;12.834;2024-01-30T14:07:37;14.10;;;7.85;;
29824;SDS011;16713;52.916;12.834;2024-01-30T14:10:06;13.32;;;6.53;;
29824;SDS011;16713;52.916;12.834;2024-01-30T14:12:37;15.68;;;8.27;;
29824;SDS011;16713;52.916;12.834;2024-01-30T14:15:04;15.35;;;7.50;;
29824;SDS011;16713;52.916;12.834;2024-01-30T14:17:45;15.50;;;8.95;;
29824;SDS011;16713;52.916;12.834;2024-01-30T14:20:14;13.05;;;7.60;;
29824;SDS011;16713;52.916;12.834;2024-01-30T14:22:44;15.27;;;7.88;;